Time;durP1;ratioP1;P1;durP2;ratioP2;P2;SDS_P1;SDS_P2;PMS_P1;PMS_P2;Temp;Humidity;BMP_temperature;BMP_pressure;BME280_temperature;BME280_humidity;BME280_pressure;Samples;Min_cycle;Max_cycle;Signal;HPM_P1;HPM_P2
2022/09/08 00:01:12;;;;;;;3.45;1.50;;;;;;;;;;4786847;30;20035;-67
2022/09/08 00:03:39;;;;;;;6.63;1.70;;;;;;;;;;4786986;29;20028;-67
2022/09/08 00:06:07;;;;;;;3.08;1.20;;;;;;;;;;4787271;30;20035;-67
2022/09/08 00:08:34;;;;;;;5.93;1.40;;;;;;;;;;4786650;30;20407;-67
2022/09/08 00:11:02;;;;;;;5.70;1.48;;;;;;;;;;4786735;30;20498;-67
2022/09/08 00:13:30;;;;;;;5.45;1.60;;;;;;;;;;4786855;30;20486;-67
2022/09/08 00:15:57;;;;;;;5.90;1.40;;;;;;;;;;4786847;29;20031;-67
2022/09/08 00:18:23;;;;;;;4.95;1.90;;;;;;;;;;4786838;30;20031;-67
2022/09/08 00:20:50;;;;;;;5.10;1.30;;;;;;;;;;4786210;30;20027;-67
2022/09/08 00:23:16;;;;;;;6.20;1.92;;;;;;;;;;4786899;30;20039;-67
2022/09/08 00:25:42;;;;;;;2.80;1.40;;;;;;;;;;4787007;30;20045;-67
2022/09/08 00:28:09;;;;;;;7.53;1.60;;;;;;;;;;4786862;30;20031;-67
2022/09/08 00:30:35;;;;;;;5.22;1.23;;;;;;;;;;4786989;30;20070;-67
2022/09/08 00:33:01;;;;;;;9.68;1.90;;;;;;;;;;4786757;30;20032;-67
2022/09/08 00:35:28;;;;;;;4.85;1.58;;;;;;;;;;4786385;29;20035;-67
2022/09/08 00:37:54;;;;;;;6.82;1.60;;;;;;;;;;4789729;30;20043;-68
2022/09/08 00:40:22;;;;;;;7.47;1.75;;;;;;;;;;4789796;30;20541;-67
2022/09/08 00:42:57;;;;;;;5.80;1.90;;;;;;;;;;4789952;30;20381;-67
2022/09/08 00:45:25;;;;;;;5.97;1.80;;;;;;;;;;4790175;30;20030;-67
2022/09/08 00:48:02;;;;;;;6.93;1.80;;;;;;;;;;4790059;30;20061;-67
2022/09/08 00:50:28;;;;;;;3.13;1.42;;;;;;;;;;4789754;30;20035;-67
2022/09/08 00:53:00;;;;;;;4.40;1.55;;;;;;;;;;4788988;30;20035;-67
2022/09/08 00:55:27;;;;;;;4.78;1.90;;;;;;;;;;4789755;29;20039;-67
2022/09/08 00:57:54;;;;;;;2.53;1.40;;;;;;;;;;4789828;30;20031;-67
2022/09/08 01:00:20;;;;;;;4.57;1.42;;;;;;;;;;4789425;30;20370;-67
2022/09/08 01:02:47;;;;;;;5.72;1.45;;;;;;;;;;4789954;30;20031;-67
2022/09/08 01:05:15;;;;;;;8.98;1.80;;;;;;;;;;4788378;30;20027;-67
2022/09/08 01:13:41;;;;;;;9.43;1.50;;;;;;;;;;4769619;30;20047;-68
2022/09/08 01:16:08;;;;;;;5.05;1.52;;;;;;;;;;4769349;30;20038;-67
2022/09/08 01:18:36;;;;;;;6.30;1.65;;;;;;;;;;4769481;30;20051;-67
2022/09/08 01:21:08;;;;;;;7.75;1.70;;;;;;;;;;4768942;30;20043;-67
2022/09/08 01:23:53;;;;;;;7.53;1.95;;;;;;;;;;4769449;30;20048;-67
2022/09/08 01:26:26;;;;;;;4.18;1.63;;;;;;;;;;4769340;30;20519;-67
2022/09/08 01:28:55;;;;;;;8.93;2.25;;;;;;;;;;4769457;30;20401;-67
2022/09/08 01:31:23;;;;;;;7.53;1.90;;;;;;;;;;4769483;30;20064;-67
2022/09/08 01:33:49;;;;;;;6.20;1.45;;;;;;;;;;4768934;30;20494;-67
2022/09/08 01:36:16;;;;;;;3.05;1.60;;;;;;;;;;4769102;30;20040;-67
2022/09/08 01:38:43;;;;;;;7.60;1.38;;;;;;;;;;4754524;30;20028;-67
2022/09/08 01:41:09;;;;;;;6.70;1.70;;;;;;;;;;4768877;30;20080;-67
2022/09/08 01:43:36;;;;;;;7.70;1.63;;;;;;;;;;4769039;30;20245;-67
2022/09/08 01:46:03;;;;;;;2.55;1.58;;;;;;;;;;4769301;30;20466;-67
2022/09/08 01:48:29;;;;;;;6.53;1.80;;;;;;;;;;4767831;30;20047;-67
2022/09/08 01:51:03;;;;;;;5.97;1.90;;;;;;;;;;4785048;30;20055;-67
2022/09/08 01:53:29;;;;;;;3.78;1.55;;;;;;;;;;4788791;29;20020;-67
2022/09/08 01:55:56;;;;;;;8.52;2.00;;;;;;;;;;4788874;29;20058;-67
2022/09/08 01:58:22;;;;;;;11.65;2.05;;;;;;;;;;4789111;30;20034;-67
2022/09/08 02:00:50;;;;;;;7.53;1.88;;;;;;;;;;4788683;30;20034;-67
2022/09/08 02:03:16;;;;;;;5.82;1.63;;;;;;;;;;4788737;30;20037;-67
2022/09/08 02:05:43;;;;;;;5.72;1.80;;;;;;;;;;4788676;30;20027;-67
2022/09/08 02:08:10;;;;;;;15.43;2.10;;;;;;;;;;4788780;30;20027;-67
2022/09/08 02:10:37;;;;;;;6.03;1.83;;;;;;;;;;4788440;30;20035;-66
2022/09/08 02:13:04;;;;;;;7.63;2.03;;;;;;;;;;4788527;29;20524;-67
2022/09/08 02:15:31;;;;;;;5.28;1.50;;;;;;;;;;4788378;29;20035;-67
2022/09/08 02:17:57;;;;;;;8.15;2.08;;;;;;;;;;4788190;30;20023;-67
2022/09/08 02:20:24;;;;;;;5.07;1.50;;;;;;;;;;4788222;30;20493;-67
2022/09/08 02:22:52;;;;;;;9.98;1.83;;;;;;;;;;4787179;30;20494;-67
2022/09/08 02:25:18;;;;;;;4.47;1.70;;;;;;;;;;4788561;30;20028;-67
2022/09/08 02:27:44;;;;;;;5.85;1.67;;;;;;;;;;4788289;30;20396;-67
2022/09/08 02:30:11;;;;;;;6.85;1.70;;;;;;;;;;4788119;29;20024;-67
2022/09/08 02:32:39;;;;;;;4.50;1.67;;;;;;;;;;4786584;29;20055;-67
2022/09/08 02:35:06;;;;;;;3.22;1.70;;;;;;;;;;4788326;29;20446;-67
2022/09/08 02:37:32;;;;;;;7.30;1.90;;;;;;;;;;4788066;30;20038;-67
2022/09/08 02:39:59;;;;;;;6.85;1.70;;;;;;;;;;4787970;29;20042;-67
2022/09/08 02:42:25;;;;;;;6.00;1.85;;;;;;;;;;4787970;30;20513;-67
2022/09/08 02:44:52;;;;;;;7.18;1.65;;;;;;;;;;4788136;30;20023;-68
2022/09/08 02:47:18;;;;;;;6.07;1.75;;;;;;;;;;4787769;29;20023;-67
2022/09/08 02:49:44;;;;;;;3.38;1.60;;;;;;;;;;4788334;29;20035;-67
2022/09/08 02:52:11;;;;;;;9.70;2.03;;;;;;;;;;4787763;30;20077;-67
2022/09/08 02:54:38;;;;;;;5.70;1.83;;;;;;;;;;4787891;30;20082;-67
2022/09/08 02:57:05;;;;;;;7.07;2.00;;;;;;;;;;4787996;30;20275;-67
2022/09/08 02:59:31;;;;;;;5.15;2.05;;;;;;;;;;4787704;30;20034;-67
2022/09/08 03:01:58;;;;;;;4.75;2.00;;;;;;;;;;4787393;30;20046;-67
2022/09/08 03:04:25;;;;;;;6.43;1.98;;;;;;;;;;4787646;29;20058;-67
2022/09/08 03:06:52;;;;;;;7.55;1.85;;;;;;;;;;4787927;30;20031;-67
2022/09/08 03:09:18;;;;;;;4.25;1.67;;;;;;;;;;4787935;30;20031;-67
2022/09/08 03:11:45;;;;;;;4.68;2.10;;;;;;;;;;4787431;30;20428;-67
2022/09/08 03:14:11;;;;;;;4.78;1.90;;;;;;;;;;4787463;29;20035;-67
2022/09/08 03:16:39;;;;;;;6.80;1.80;;;;;;;;;;4787202;30;20031;-67
2022/09/08 03:19:06;;;;;;;7.05;2.47;;;;;;;;;;4787383;30;20397;-67
2022/09/08 03:21:33;;;;;;;11.35;1.88;;;;;;;;;;4787382;30;20038;-67
2022/09/08 03:23:59;;;;;;;6.43;2.28;;;;;;;;;;4787498;30;20031;-67
2022/09/08 03:26:25;;;;;;;5.00;1.88;;;;;;;;;;4787229;30;20270;-67
2022/09/08 03:28:51;;;;;;;10.57;2.17;;;;;;;;;;4787266;30;20031;-67
2022/09/08 03:31:19;;;;;;;6.57;2.20;;;;;;;;;;4785974;30;20047;-67
2022/09/08 03:33:46;;;;;;;8.18;1.83;;;;;;;;;;4786060;30;20181;-67
2022/09/08 03:36:13;;;;;;;3.83;1.80;;;;;;;;;;4787242;30;20550;-67
2022/09/08 03:38:40;;;;;;;4.55;1.90;;;;;;;;;;4787536;29;20503;-67
2022/09/08 03:41:11;;;;;;;8.00;2.30;;;;;;;;;;4786791;29;20498;-67
2022/09/08 03:43:37;;;;;;;;;;;;;;;;;;4787764;30;20030;-67
2022/09/08 03:46:08;;;;;;;10.63;1.80;;;;;;;;;;4786876;30;19931;-67
2022/09/08 03:48:34;;;;;;;5.73;2.10;;;;;;;;;;4787456;30;20031;-67
2022/09/08 03:51:14;;;;;;;4.70;1.92;;;;;;;;;;4786903;30;20287;-68
2022/09/08 03:53:41;;;;;;;3.90;1.58;;;;;;;;;;4787217;30;20031;-67
2022/09/08 03:56:08;;;;;;;5.45;1.90;;;;;;;;;;4786982;30;20031;-67
2022/09/08 03:58:35;;;;;;;7.93;1.70;;;;;;;;;;4786919;29;20031;-67
2022/09/08 04:01:01;;;;;;;4.57;1.75;;;;;;;;;;4786702;30;20035;-67
2022/09/08 04:03:29;;;;;;;5.38;1.80;;;;;;;;;;4786228;30;20027;-67
2022/09/08 04:05:55;;;;;;;4.38;2.00;;;;;;;;;;4787008;30;20039;-67
2022/09/08 04:08:21;;;;;;;11.23;2.03;;;;;;;;;;4786789;30;20025;-67
2022/09/08 04:10:48;;;;;;;6.38;2.08;;;;;;;;;;4786847;29;20052;-67
2022/09/08 04:13:14;;;;;;;7.45;2.10;;;;;;;;;;4790396;30;20095;-67
2022/09/08 04:15:40;;;;;;;11.52;2.10;;;;;;;;;;4790217;29;20470;-67
2022/09/08 04:18:07;;;;;;;4.53;2.28;;;;;;;;;;4790763;30;20050;-67
2022/09/08 04:20:33;;;;;;;4.68;2.05;;;;;;;;;;4790276;30;20481;-67
2022/09/08 04:23:00;;;;;;;8.00;2.05;;;;;;;;;;4790235;30;20035;-67
2022/09/08 04:25:26;;;;;;;7.10;2.35;;;;;;;;;;4790403;30;20430;-67
2022/09/08 04:27:52;;;;;;;5.72;2.30;;;;;;;;;;4789952;30;20424;-67
2022/09/08 04:30:19;;;;;;;4.57;1.80;;;;;;;;;;4790151;30;20023;-67
2022/09/08 04:32:45;;;;;;;7.32;2.05;;;;;;;;;;4790224;29;20035;-67
2022/09/08 04:35:11;;;;;;;5.40;2.08;;;;;;;;;;4790560;30;20027;-67
2022/09/08 04:37:38;;;;;;;7.07;2.20;;;;;;;;;;4790157;30;20400;-67
2022/09/08 04:40:06;;;;;;;9.77;2.08;;;;;;;;;;4790082;30;20480;-67
2022/09/08 04:42:33;;;;;;;11.93;2.10;;;;;;;;;;4789546;30;20019;-67
2022/09/08 04:45:00;;;;;;;6.00;2.53;;;;;;;;;;4790182;30;20041;-67
2022/09/08 04:47:26;;;;;;;5.28;2.03;;;;;;;;;;4790195;30;20089;-67
2022/09/08 04:49:53;;;;;;;7.57;2.42;;;;;;;;;;4790323;30;20047;-67
2022/09/08 04:52:25;;;;;;;4.28;2.00;;;;;;;;;;4789730;30;20050;-67
2022/09/08 04:54:51;;;;;;;7.15;2.28;;;;;;;;;;4789911;30;20027;-67
2022/09/08 04:57:19;;;;;;;4.18;2.05;;;;;;;;;;4789619;30;20039;-67
2022/09/08 04:59:45;;;;;;;9.68;2.15;;;;;;;;;;4790034;30;20027;-67
2022/09/08 05:02:13;;;;;;;6.50;2.03;;;;;;;;;;4788471;30;20042;-67
2022/09/08 05:04:39;;;;;;;6.70;2.25;;;;;;;;;;4790081;30;20084;-67
2022/09/08 05:07:05;;;;;;;6.75;2.08;;;;;;;;;;4789779;30;20442;-67
2022/09/08 05:09:32;;;;;;;6.35;2.15;;;;;;;;;;4789583;30;20031;-67
2022/09/08 05:11:58;;;;;;;12.88;2.40;;;;;;;;;;4789266;30;20428;-67
2022/09/08 05:14:24;;;;;;;4.22;2.10;;;;;;;;;;4789405;29;20042;-67
2022/09/08 05:16:51;;;;;;;6.57;1.92;;;;;;;;;;4789649;30;20473;-67
2022/09/08 05:19:17;;;;;;;7.10;2.05;;;;;;;;;;4789509;30;20379;-67
2022/09/08 05:21:43;;;;;;;8.00;3.67;;;;;;;;;;4789190;29;20045;-67
2022/09/08 05:24:10;;;;;;;6.40;2.70;;;;;;;;;;4789966;30;20028;-67
2022/09/08 05:26:36;;;;;;;4.32;2.00;;;;;;;;;;4789157;30;20039;-67
2022/09/08 05:29:03;;;;;;;4.10;2.10;;;;;;;;;;4789281;30;20025;-67
2022/09/08 05:31:30;;;;;;;8.27;2.40;;;;;;;;;;4789473;30;20040;-67
2022/09/08 05:33:58;;;;;;;9.18;2.10;;;;;;;;;;4789345;30;20023;-68
2022/09/08 05:36:29;;;;;;;5.35;2.58;;;;;;;;;;4789435;30;20046;-68
2022/09/08 05:38:57;;;;;;;5.72;2.42;;;;;;;;;;4789282;30;20027;-68
2022/09/08 05:41:24;;;;;;;11.23;2.28;;;;;;;;;;4788627;29;20452;-68
2022/09/08 05:43:52;;;;;;;5.78;2.42;;;;;;;;;;4789185;30;20047;-68
2022/09/08 05:46:18;;;;;;;7.10;2.20;;;;;;;;;;4789098;30;20031;-68
2022/09/08 05:48:45;;;;;;;3.60;1.50;;;;;;;;;;4789118;30;20031;-67
2022/09/08 05:51:13;;;;;;;14.80;2.80;;;;;;;;;;4789015;30;20397;-68
2022/09/08 05:53:40;;;;;;;8.13;2.17;;;;;;;;;;4787734;30;20035;-67
2022/09/08 05:56:08;;;;;;;5.90;1.88;;;;;;;;;;4788811;29;20039;-68
2022/09/08 05:58:34;;;;;;;3.50;1.92;;;;;;;;;;4788763;30;20037;-67
2022/09/08 06:01:08;;;;;;;7.05;1.98;;;;;;;;;;4788713;30;20500;-68
2022/09/08 06:03:36;;;;;;;7.00;2.00;;;;;;;;;;4788006;29;20038;-67
2022/09/08 06:06:04;;;;;;;4.70;1.70;;;;;;;;;;4788677;30;20434;-68
2022/09/08 06:08:31;;;;;;;5.97;1.70;;;;;;;;;;4788550;30;20042;-68
2022/09/08 06:10:57;;;;;;;6.45;2.03;;;;;;;;;;4787766;29;20069;-67
2022/09/08 06:13:24;;;;;;;5.82;1.83;;;;;;;;;;4788270;30;20039;-68
2022/09/08 06:15:50;;;;;;;12.10;2.30;;;;;;;;;;4784077;29;20035;-63
2022/09/08 06:18:17;;;;;;;4.97;1.80;;;;;;;;;;4786567;29;20023;-62
2022/09/08 06:20:44;;;;;;;8.25;2.10;;;;;;;;;;4798204;29;20030;-63
2022/09/08 06:23:11;;;;;;;5.45;1.83;;;;;;;;;;4792811;29;20039;-64
2022/09/08 06:25:45;;;;;;;8.18;2.72;;;;;;;;;;4787627;30;20043;-64
2022/09/08 06:28:17;;;;;;;9.65;2.28;;;;;;;;;;4787248;29;20092;-64
2022/09/08 06:30:46;;;;;;;7.20;1.77;;;;;;;;;;4787553;30;20031;-62
2022/09/08 06:33:15;;;;;;;11.25;2.10;;;;;;;;;;4791622;29;20033;-64
2022/09/08 06:35:59;;;;;;;5.72;1.80;;;;;;;;;;4794988;29;20035;-63
2022/09/08 06:38:32;;;;;;;9.15;2.53;;;;;;;;;;4786815;30;20057;-63
2022/09/08 06:41:10;;;;;;;8.18;1.80;;;;;;;;;;4786700;30;20493;-64
2022/09/08 06:43:42;;;;;;;5.05;1.92;;;;;;;;;;4787248;30;20031;-64
2022/09/08 06:46:17;;;;;;;6.70;2.13;;;;;;;;;;4787218;30;20031;-64
2022/09/08 06:48:43;;;;;;;4.40;2.13;;;;;;;;;;4787219;30;20141;-64
2022/09/08 06:51:28;;;;;;;3.97;1.92;;;;;;;;;;4787302;30;20478;-63
2022/09/08 06:54:09;;;;;;;4.78;1.80;;;;;;;;;;4787559;30;20035;-64
2022/09/08 06:56:47;;;;;;;7.50;1.83;;;;;;;;;;4786430;29;20037;-64
2022/09/08 06:59:27;;;;;;;4.53;1.90;;;;;;;;;;4786109;29;20039;-64
2022/09/08 07:01:59;;;;;;;7.20;1.90;;;;;;;;;;4786304;29;20027;-64
2022/09/08 07:04:34;;;;;;;5.07;2.10;;;;;;;;;;4785922;30;20046;-64
2022/09/08 07:07:07;;;;;;;6.90;1.80;;;;;;;;;;4786434;30;20478;-65
2022/09/08 07:09:40;;;;;;;5.60;1.92;;;;;;;;;;4781843;29;20517;-64
2022/09/08 07:12:15;;;;;;;3.83;1.40;;;;;;;;;;4783535;29;20070;-65
2022/09/08 07:14:50;;;;;;;4.13;1.90;;;;;;;;;;4778606;29;20024;-65
2022/09/08 07:17:49;;;;;;;9.90;1.83;;;;;;;;;;4785150;30;20035;-65
2022/09/08 07:20:15;;;;;;;6.93;1.67;;;;;;;;;;4777986;30;20050;-65
2022/09/08 07:23:00;;;;;;;6.95;1.30;;;;;;;;;;4774807;30;20043;-65
2022/09/08 07:25:26;;;;;;;4.85;1.70;;;;;;;;;;4782861;30;20055;-65
2022/09/08 07:27:58;;;;;;;3.72;1.70;;;;;;;;;;4782004;30;20030;-65
2022/09/08 07:30:24;;;;;;;2.97;1.35;;;;;;;;;;4773117;30;20409;-65
2022/09/08 07:32:52;;;;;;;5.60;1.48;;;;;;;;;;4775536;30;20046;-65
2022/09/08 07:35:24;;;;;;;4.45;1.38;;;;;;;;;;4767295;30;20040;-65
2022/09/08 07:37:54;;;;;;;3.55;1.20;;;;;;;;;;4764633;30;20091;-66
2022/09/08 07:40:24;;;;;;;3.72;1.08;;;;;;;;;;4777244;30;20460;-66
2022/09/08 07:42:57;;;;;;;6.90;1.58;;;;;;;;;;4776392;30;20035;-66
2022/09/08 07:45:28;;;;;;;2.78;1.20;;;;;;;;;;4781940;29;20088;-65
2022/09/08 07:48:01;;;;;;;4.10;1.42;;;;;;;;;;4783293;30;20035;-65
2022/09/08 07:50:54;;;;;;;5.32;1.50;;;;;;;;;;4782772;30;20035;-65
2022/09/08 07:53:33;;;;;;;3.83;1.38;;;;;;;;;;4783183;30;20043;-65
2022/09/08 07:56:13;;;;;;;7.03;1.45;;;;;;;;;;4784536;30;20523;-66
2022/09/08 07:58:43;;;;;;;9.63;1.30;;;;;;;;;;4785319;30;20049;-65
2022/09/08 08:01:20;;;;;;;5.93;1.67;;;;;;;;;;4784177;29;20027;-65
2022/09/08 08:03:52;;;;;;;3.88;1.50;;;;;;;;;;4786824;29;20045;-66
2022/09/08 08:06:38;;;;;;;2.45;1.17;;;;;;;;;;4802655;29;20031;-65
2022/09/08 08:09:16;;;;;;;2.47;1.20;;;;;;;;;;4794404;29;20027;-66
2022/09/08 08:11:46;;;;;;;2.58;1.15;;;;;;;;;;4785274;30;20058;-65
2022/09/08 08:14:15;;;;;;;3.00;1.00;;;;;;;;;;4785268;29;20513;-66
2022/09/08 08:16:55;;;;;;;7.15;1.27;;;;;;;;;;4785319;30;20035;-65
2022/09/08 08:19:28;;;;;;;4.68;1.50;;;;;;;;;;4784934;29;20391;-65
2022/09/08 08:22:13;;;;;;;3.10;1.30;;;;;;;;;;4785528;30;20035;-64
2022/09/08 08:24:48;;;;;;;5.13;1.25;;;;;;;;;;4784103;30;20416;-65
2022/09/08 08:27:14;;;;;;;2.25;1.00;;;;;;;;;;4784290;30;20029;-65
2022/09/08 08:29:53;;;;;;;2.15;1.10;;;;;;;;;;4785498;30;20042;-66
2022/09/08 08:32:32;;;;;;;6.20;1.10;;;;;;;;;;4784883;30;20043;-66
2022/09/08 08:35:01;;;;;;;4.00;1.10;;;;;;;;;;4784156;29;20428;-65
2022/09/08 08:37:30;;;;;;;4.40;1.10;;;;;;;;;;4784960;30;20507;-65
2022/09/08 08:39:58;;;;;;;1.98;1.00;;;;;;;;;;4785346;30;20076;-65
2022/09/08 08:42:32;;;;;;;3.58;1.13;;;;;;;;;;4784750;30;20034;-65
2022/09/08 08:45:01;;;;;;;2.30;1.02;;;;;;;;;;4782141;30;20525;-66
2022/09/08 08:47:36;;;;;;;3.42;1.00;;;;;;;;;;4785333;30;20024;-66
2022/09/08 08:50:18;;;;;;;16.27;1.50;;;;;;;;;;4784222;29;20039;-67
2022/09/08 08:52:50;;;;;;;5.00;1.10;;;;;;;;;;4784787;30;20050;-71
2022/09/08 08:55:25;;;;;;;2.60;0.80;;;;;;;;;;4784225;29;20463;-66
2022/09/08 08:57:55;;;;;;;2.60;1.00;;;;;;;;;;4786579;29;20035;-67
2022/09/08 09:00:23;;;;;;;5.85;1.00;;;;;;;;;;4787642;30;20035;-65
2022/09/08 09:03:08;;;;;;;3.97;1.10;;;;;;;;;;4787753;30;20035;-66
2022/09/08 09:05:44;;;;;;;4.53;1.05;;;;;;;;;;4802803;29;20047;-67
2022/09/08 09:08:16;;;;;;;1.88;0.90;;;;;;;;;;4803768;29;20508;-67
2022/09/08 09:10:54;;;;;;;4.80;1.02;;;;;;;;;;4787987;30;20397;-66
2022/09/08 09:13:39;;;;;;;1.40;0.73;;;;;;;;;;4786857;29;20049;-65
2022/09/08 09:16:05;;;;;;;2.83;0.80;;;;;;;;;;4787179;29;20525;-64
2022/09/08 09:18:50;;;;;;;3.63;1.02;;;;;;;;;;4786400;30;20553;-65
2022/09/08 09:21:29;;;;;;;6.43;1.38;;;;;;;;;;4787784;30;20035;-64
2022/09/08 09:24:00;;;;;;;3.85;1.20;;;;;;;;;;4787725;29;20508;-66
2022/09/08 09:26:30;;;;;;;1.88;0.95;;;;;;;;;;4786173;29;20035;-65
2022/09/08 09:29:05;;;;;;;2.30;0.82;;;;;;;;;;4787647;30;20420;-66
2022/09/08 09:31:31;;;;;;;3.50;1.02;;;;;;;;;;4787189;30;20386;-65
2022/09/08 09:33:58;;;;;;;2.65;0.77;;;;;;;;;;4787556;29;20037;-67
2022/09/08 09:36:27;;;;;;;5.25;0.85;;;;;;;;;;4787645;29;20043;-66
2022/09/08 09:39:17;;;;;;;3.08;1.05;;;;;;;;;;4787459;30;20028;-67
2022/09/08 09:41:43;;;;;;;2.47;0.82;;;;;;;;;;4787644;30;20031;-66
2022/09/08 09:44:24;;;;;;;1.77;0.65;;;;;;;;;;4787829;29;20043;-65
2022/09/08 09:47:02;;;;;;;2.30;1.00;;;;;;;;;;4787288;30;20035;-66
2022/09/08 09:49:59;;;;;;;2.67;0.80;;;;;;;;;;4787578;30;20036;-66
2022/09/08 09:52:32;;;;;;;1.75;0.65;;;;;;;;;;4787182;29;20083;-66
2022/09/08 09:55:19;;;;;;;3.00;0.75;;;;;;;;;;4785952;30;20038;-67
2022/09/08 09:58:10;;;;;;;4.28;1.00;;;;;;;;;;4800917;29;20041;-67
2022/09/08 10:00:48;;;;;;;2.78;0.80;;;;;;;;;;4792410;29;20035;-66
2022/09/08 10:03:44;;;;;;;5.93;1.10;;;;;;;;;;4788909;29;20039;-64
2022/09/08 10:06:13;;;;;;;3.90;0.88;;;;;;;;;;4778526;30;20047;-63
2022/09/08 10:09:06;;;;;;;4.78;0.70;;;;;;;;;;4767715;30;20558;-64
2022/09/08 10:11:45;;;;;;;2.72;0.80;;;;;;;;;;4765535;30;20557;-64
2022/09/08 10:14:46;;;;;;;3.13;0.90;;;;;;;;;;4764034;30;20804;-62
2022/09/08 10:17:13;;;;;;;2.60;0.77;;;;;;;;;;4731744;30;20052;-64
2022/09/08 10:19:58;;;;;;;5.50;0.95;;;;;;;;;;4730896;30;20503;-64
2022/09/08 10:22:25;;;;;;;3.85;1.05;;;;;;;;;;4731110;30;20057;-63
2022/09/08 10:25:10;;;;;;;4.68;0.90;;;;;;;;;;4731030;30;20040;-64
2022/09/08 10:27:57;;;;;;;5.75;1.10;;;;;;;;;;4730745;30;20051;-63
2022/09/08 10:30:42;;;;;;;5.38;0.93;;;;;;;;;;4730963;30;20055;-62
2022/09/08 10:33:27;;;;;;;5.60;0.82;;;;;;;;;;4730671;30;20051;-63
2022/09/08 10:35:57;;;;;;;5.28;0.93;;;;;;;;;;4730167;30;20044;-63
2022/09/08 10:38:23;;;;;;;;;;;;;;;;;;4730904;30;20055;-64
2022/09/08 10:40:55;;;;;;;5.38;0.80;;;;;;;;;;4731440;30;19920;-64
2022/09/08 10:43:37;;;;;;;2.13;0.93;;;;;;;;;;4745797;30;20052;-64
2022/09/08 10:46:06;;;;;;;3.60;0.90;;;;;;;;;;4748415;30;20089;-64
2022/09/08 10:48:55;;;;;;;6.60;1.15;;;;;;;;;;4748576;30;20040;-64
2022/09/08 10:51:36;;;;;;;1.70;0.60;;;;;;;;;;4760576;30;20205;-64
2022/09/08 10:54:02;;;;;;;;;;;;;;;;;;4769488;30;20028;-64
2022/09/08 10:56:28;;;;;;;2.25;0.68;;;;;;;;;;4768661;30;19913;-64
2022/09/08 10:59:05;;;;;;;4.75;0.80;;;;;;;;;;4768172;30;20493;-64
2022/09/08 11:01:40;;;;;;;2.75;0.93;;;;;;;;;;4768820;30;20024;-64
2022/09/08 11:04:25;;;;;;;4.95;1.25;;;;;;;;;;4768674;30;20490;-64
2022/09/08 11:07:11;;;;;;;2.30;1.05;;;;;;;;;;4768483;30;20427;-64
2022/09/08 11:09:57;;;;;;;3.30;1.00;;;;;;;;;;4781582;30;20039;-64
2022/09/08 11:12:27;;;;;;;3.70;0.75;;;;;;;;;;4786408;30;20058;-65
2022/09/08 11:15:12;;;;;;;5.40;0.80;;;;;;;;;;4786442;29;20045;-64
2022/09/08 11:17:49;;;;;;;2.17;0.73;;;;;;;;;;4782124;30;20095;-65
2022/09/08 11:20:36;;;;;;;4.15;0.80;;;;;;;;;;4767354;30;20031;-65
2022/09/08 11:23:06;;;;;;;2.67;0.77;;;;;;;;;;4768365;30;20039;-65
2022/09/08 11:25:42;;;;;;;4.80;0.95;;;;;;;;;;4768289;30;20024;-65
2022/09/08 11:28:34;;;;;;;1.33;0.57;;;;;;;;;;4767948;30;20028;-65
2022/09/08 11:31:14;;;;;;;3.45;0.75;;;;;;;;;;4767252;30;20066;-64
2022/09/08 11:33:56;;;;;;;3.67;0.93;;;;;;;;;;4768005;30;20042;-65
2022/09/08 11:36:40;;;;;;;2.60;0.70;;;;;;;;;;4770141;30;20031;-65
2022/09/08 11:39:07;;;;;;;1.80;0.80;;;;;;;;;;4783777;29;20031;-64
2022/09/08 11:41:42;;;;;;;6.43;0.68;;;;;;;;;;4785853;30;20023;-65
2022/09/08 11:44:09;;;;;;;4.90;0.90;;;;;;;;;;4785708;29;20046;-65
2022/09/08 11:46:42;;;;;;;2.35;0.70;;;;;;;;;;4785707;29;20034;-65
2022/09/08 11:49:11;;;;;;;3.25;0.90;;;;;;;;;;4785839;30;20039;-65
2022/09/08 11:51:56;;;;;;;3.05;0.93;;;;;;;;;;4785635;30;20035;-64
2022/09/08 11:54:23;;;;;;;2.50;0.80;;;;;;;;;;4787788;29;20032;-64
2022/09/08 11:56:50;;;;;;;3.28;0.85;;;;;;;;;;4785101;29;20039;-63
2022/09/08 11:59:18;;;;;;;5.03;0.98;;;;;;;;;;4783684;29;20035;-64
2022/09/08 12:02:03;;;;;;;2.70;0.70;;;;;;;;;;4785855;30;20031;-65
2022/09/08 12:04:47;;;;;;;2.95;1.13;;;;;;;;;;4782294;29;20035;-65
2022/09/08 12:07:13;;;;;;;2.83;0.90;;;;;;;;;;4785364;30;20038;-63
2022/09/08 12:10:00;;;;;;;2.70;0.70;;;;;;;;;;4785247;30;20584;-65
2022/09/08 12:12:44;;;;;;;1.48;0.70;;;;;;;;;;4777361;30;20058;-65
2022/09/08 12:15:13;;;;;;;3.53;1.00;;;;;;;;;;4769261;29;20495;-64
2022/09/08 12:17:59;;;;;;;6.80;0.80;;;;;;;;;;4784082;30;20053;-65
2022/09/08 12:20:28;;;;;;;3.42;0.70;;;;;;;;;;4783145;30;20528;-65
2022/09/08 12:22:54;;;;;;;3.78;0.90;;;;;;;;;;4785205;30;20515;-64
2022/09/08 12:25:33;;;;;;;2.75;0.80;;;;;;;;;;4784267;29;20074;-65
2022/09/08 12:28:00;;;;;;;2.05;0.73;;;;;;;;;;4794108;29;20607;-65
2022/09/08 12:30:46;;;;;;;2.92;0.65;;;;;;;;;;4793053;29;20580;-65
2022/09/08 12:33:13;;;;;;;0.93;0.60;;;;;;;;;;4795653;29;20043;-65
2022/09/08 12:35:48;;;;;;;4.93;0.77;;;;;;;;;;4798099;29;20041;-65
2022/09/08 12:38:33;;;;;;;3.22;0.82;;;;;;;;;;4801215;29;20090;-65
2022/09/08 12:41:14;;;;;;;3.38;0.70;;;;;;;;;;4805480;29;20414;-65
2022/09/08 12:43:41;;;;;;;1.20;0.63;;;;;;;;;;4789400;29;20035;-65
2022/09/08 12:46:07;;;;;;;3.50;0.80;;;;;;;;;;4788318;29;20031;-66
2022/09/08 12:48:53;;;;;;;2.85;0.80;;;;;;;;;;4788134;30;20038;-66
2022/09/08 12:51:25;;;;;;;2.40;0.95;;;;;;;;;;4788593;29;20049;-66
2022/09/08 12:54:10;;;;;;;2.05;0.80;;;;;;;;;;4788792;29;20027;-66
2022/09/08 12:56:45;;;;;;;2.58;0.70;;;;;;;;;;4790050;29;20051;-65
2022/09/08 12:59:30;;;;;;;1.35;0.65;;;;;;;;;;4789882;29;20031;-65
2022/09/08 13:02:21;;;;;;;2.33;0.85;;;;;;;;;;4788665;30;20093;-63
2022/09/08 13:04:49;;;;;;;3.05;0.70;;;;;;;;;;4786887;30;20042;-63
2022/09/08 13:07:15;;;;;;;1.33;0.82;;;;;;;;;;4787770;29;20038;-63
2022/09/08 13:09:50;;;;;;;3.38;1.02;;;;;;;;;;4787889;30;20037;-63
2022/09/08 13:12:27;;;;;;;4.90;0.80;;;;;;;;;;4787754;29;20057;-63
2022/09/08 13:14:54;;;;;;;1.80;0.82;;;;;;;;;;4792367;29;20049;-64
2022/09/08 13:17:29;;;;;;;3.80;0.80;;;;;;;;;;4786712;29;20817;-63
2022/09/08 13:20:04;;;;;;;2.10;0.55;;;;;;;;;;4788079;30;20054;-64
2022/09/08 13:22:30;;;;;;;2.13;0.77;;;;;;;;;;4800334;29;20038;-63
2022/09/08 13:25:02;;;;;;;2.15;0.77;;;;;;;;;;4805519;29;20039;-63
2022/09/08 13:27:55;;;;;;;2.10;0.90;;;;;;;;;;4805759;29;20031;-63
2022/09/08 13:30:51;;;;;;;3.00;0.80;;;;;;;;;;4790915;29;20038;-63
2022/09/08 13:33:36;;;;;;;2.38;0.80;;;;;;;;;;4789726;29;20428;-63
2022/09/08 13:36:02;;;;;;;6.00;0.90;;;;;;;;;;4787731;30;20032;-63
2022/09/08 13:38:37;;;;;;;5.38;0.82;;;;;;;;;;4785285;29;20075;-63
2022/09/08 13:41:08;;;;;;;2.35;0.90;;;;;;;;;;4781806;29;20055;-63
2022/09/08 13:43:53;;;;;;;2.05;0.90;;;;;;;;;;4786641;29;20031;-63
2022/09/08 13:46:38;;;;;;;2.70;0.93;;;;;;;;;;4803435;29;20019;-64
2022/09/08 13:49:18;;;;;;;2.30;0.98;;;;;;;;;;4790259;29;20023;-63
2022/09/08 13:51:54;;;;;;;1.95;0.70;;;;;;;;;;4784667;29;20660;-63
2022/09/08 13:54:21;;;;;;;2.55;0.90;;;;;;;;;;4787185;29;20023;-62
2022/09/08 13:56:50;;;;;;;2.35;0.80;;;;;;;;;;4794781;29;20039;-63
2022/09/08 13:59:16;;;;;;;3.07;1.03;;;;;;;;;;4787424;29;20428;-63
2022/09/08 14:01:45;;;;;;;2.55;0.82;;;;;;;;;;4788594;29;20646;-63
2022/09/08 14:04:15;;;;;;;1.55;0.77;;;;;;;;;;4786924;29;20032;-63
2022/09/08 14:06:42;;;;;;;1.90;0.77;;;;;;;;;;4787206;29;20112;-63
2022/09/08 14:09:13;;;;;;;2.85;0.70;;;;;;;;;;4786268;30;20041;-62
2022/09/08 14:11:46;;;;;;;1.27;0.80;;;;;;;;;;4786440;29;20104;-63
2022/09/08 14:14:15;;;;;;;4.43;0.60;;;;;;;;;;4784291;30;20046;-63
2022/09/08 14:16:42;;;;;;;6.90;0.82;;;;;;;;;;4795833;29;20027;-62
2022/09/08 14:19:09;;;;;;;2.28;0.90;;;;;;;;;;4791427;29;20027;-65
2022/09/08 14:21:35;;;;;;;3.13;0.80;;;;;;;;;;4786536;30;20036;-64
2022/09/08 14:24:19;;;;;;;1.88;0.68;;;;;;;;;;4787364;29;20511;-65
2022/09/08 14:26:49;;;;;;;3.08;0.60;;;;;;;;;;4786409;29;20512;-65
2022/09/08 14:29:21;;;;;;;1.73;0.60;;;;;;;;;;4785874;29;20027;-64
2022/09/08 14:32:00;;;;;;;2.75;0.80;;;;;;;;;;4787733;29;20050;-64
2022/09/08 14:34:33;;;;;;;1.85;0.60;;;;;;;;;;4785590;29;20047;-64
2022/09/08 14:37:16;;;;;;;1.60;0.80;;;;;;;;;;4785637;30;20392;-65
2022/09/08 14:39:48;;;;;;;2.67;1.00;;;;;;;;;;4790381;29;20049;-64
2022/09/08 14:42:22;;;;;;;1.27;0.50;;;;;;;;;;4792716;29;20024;-65
2022/09/08 14:44:57;;;;;;;5.63;1.00;;;;;;;;;;4787258;29;20386;-65
2022/09/08 14:47:25;;;;;;;6.43;1.15;;;;;;;;;;4784846;29;20114;-65
2022/09/08 14:50:00;;;;;;;2.42;0.93;;;;;;;;;;4785990;29;20042;-67
2022/09/08 14:52:53;;;;;;;1.85;0.70;;;;;;;;;;4789180;29;20043;-67
2022/09/08 14:55:26;;;;;;;4.40;1.00;;;;;;;;;;4780265;29;20074;-67
2022/09/08 14:58:12;;;;;;;1.58;0.75;;;;;;;;;;4785068;29;20039;-67
2022/09/08 15:00:40;;;;;;;2.97;0.80;;;;;;;;;;4786218;29;20429;-67
2022/09/08 15:03:13;;;;;;;5.00;0.95;;;;;;;;;;4784271;29;20568;-67
2022/09/08 15:05:45;;;;;;;2.63;0.90;;;;;;;;;;4789385;29;20066;-67
2022/09/08 15:08:15;;;;;;;2.35;0.80;;;;;;;;;;4785852;29;20031;-67
2022/09/08 15:10:42;;;;;;;;;;;;;;;;;;4785536;29;20041;-67
2022/09/08 15:13:19;;;;;;;3.95;0.70;;;;;;;;;;4783283;30;19941;-68
2022/09/08 15:15:46;;;;;;;1.52;0.52;;;;;;;;;;4786388;29;20037;-67
2022/09/08 15:18:19;;;;;;;2.25;0.88;;;;;;;;;;4786516;30;20023;-67